Time;durP1;ratioP1;P1;durP2;ratioP2;P2;SDS_P1;SDS_P2;PMS_P1;PMS_P2;Temp;Humidity;BMP_temperature;BMP_pressure;BME280_temperature;BME280_humidity;BME280_pressure;Samples;Min_cycle;Max_cycle;Signal;HPM_P1;HPM_P2
2024/01/25 00:01:15;;;;;;;4.88;1.48;;;;;;;20.73;42.10;102646.59;4916200;28;97217;-71
2024/01/25 00:03:40;;;;;;;6.13;1.40;;;;;;;20.73;41.98;102657.19;4919511;28;97224;-71
2024/01/25 00:06:06;;;;;;;4.82;1.90;;;;;;;20.73;42.44;102659.84;4927403;28;96846;-71
2024/01/25 00:08:32;;;;;;;6.22;2.15;;;;;;;20.75;42.13;102664.25;4920527;28;97460;-71
2024/01/25 00:10:57;;;;;;;6.32;1.38;;;;;;;20.73;42.01;102659.84;4927095;28;97268;-71
2024/01/25 00:13:23;;;;;;;6.93;1.95;;;;;;;20.73;42.04;102654.56;4927247;28;105298;-71
2024/01/25 00:15:48;;;;;;;5.57;1.63;;;;;;;20.75;42.36;102665.16;4928603;28;97018;-71
2024/01/25 00:18:13;;;;;;;6.15;1.42;;;;;;;20.73;42.05;102670.47;4930334;28;96811;-71
2024/01/25 00:20:39;;;;;;;7.80;2.35;;;;;;;20.73;42.18;102661.63;4930221;28;110695;-71
2024/01/25 00:23:04;;;;;;;5.68;1.70;;;;;;;20.73;42.34;102667.81;4930008;28;122191;-71
2024/01/25 00:25:29;;;;;;;7.72;3.03;;;;;;;20.74;42.32;102666.03;4930052;28;120328;-71
2024/01/25 00:27:55;;;;;;;5.22;1.52;;;;;;;20.73;42.38;102667.81;4930086;28;97443;-71
2024/01/25 00:30:20;;;;;;;5.03;1.13;;;;;;;20.72;42.40;102666.03;4928873;28;97315;-70
2024/01/25 00:32:45;;;;;;;5.10;2.30;;;;;;;20.75;42.06;102672.22;4929519;28;96773;-71
2024/01/25 00:35:13;;;;;;;4.82;1.42;;;;;;;20.74;42.20;102660.72;4928925;28;122876;-71
2024/01/25 00:37:40;;;;;;;6.82;1.60;;;;;;;20.74;41.98;102668.69;4928829;28;97544;-71
2024/01/25 00:40:06;;;;;;;6.38;2.22;;;;;;;20.73;42.24;102665.16;4913034;28;98083;-71
2024/01/25 00:42:37;;;;;;;4.38;1.17;;;;;;;20.74;41.98;102668.69;4926959;28;96813;-71
2024/01/25 00:45:02;;;;;;;6.25;1.80;;;;;;;20.73;42.35;102680.19;4930548;28;97934;-70
2024/01/25 00:47:28;;;;;;;5.72;1.63;;;;;;;20.73;42.30;102670.47;4929583;28;96777;-71
2024/01/25 00:49:54;;;;;;;6.00;2.17;;;;;;;20.73;42.19;102670.47;4912339;28;97245;-70
2024/01/25 00:52:19;;;;;;;8.05;2.38;;;;;;;20.72;41.93;102673.97;4930833;28;96787;-72
2024/01/25 00:54:45;;;;;;;5.85;1.65;;;;;;;20.73;41.93;102678.41;4931692;28;96831;-70
2024/01/25 00:57:11;;;;;;;7.30;1.63;;;;;;;20.73;42.11;102675.75;4931356;28;97125;-71
2024/01/25 00:59:36;;;;;;;3.60;1.30;;;;;;;20.74;42.26;102671.34;4926435;28;99381;-70
2024/01/25 01:02:05;;;;;;;5.13;1.60;;;;;;;20.75;41.92;102683.72;4930438;28;96741;-71
2024/01/25 01:04:31;;;;;;;4.20;1.60;;;;;;;20.72;41.89;102676.63;4930298;28;97075;-70
2024/01/25 01:06:56;;;;;;;5.47;1.85;;;;;;;20.72;42.31;102676.63;4928022;28;97541;-70
2024/01/25 01:09:22;;;;;;;5.30;1.55;;;;;;;20.74;42.19;102689.91;4929475;28;96803;-70
2024/01/25 01:11:47;;;;;;;5.45;1.45;;;;;;;20.73;42.27;102681.06;4929847;28;109938;-71
2024/01/25 01:14:12;;;;;;;4.70;1.70;;;;;;;20.73;42.05;102685.50;4916581;28;122178;-71
2024/01/25 01:16:38;;;;;;;4.72;1.95;;;;;;;20.73;42.22;102691.69;4928394;28;97525;-70
2024/01/25 01:19:06;;;;;;;5.20;2.00;;;;;;;20.74;42.19;102689.91;4928999;28;97304;-71
2024/01/25 01:21:33;;;;;;;6.35;1.92;;;;;;;20.73;41.94;102688.16;4923375;28;96708;-71
2024/01/25 01:23:58;;;;;;;6.55;1.90;;;;;;;20.72;41.71;102684.59;4921335;28;97031;-71
2024/01/25 01:26:24;;;;;;;6.50;1.50;;;;;;;20.73;42.20;102691.69;4908874;28;127434;-71
2024/01/25 01:28:49;;;;;;;6.03;1.42;;;;;;;20.72;42.06;102695.19;4928661;28;97864;-71
2024/01/25 01:31:14;;;;;;;6.25;1.83;;;;;;;20.73;42.05;102699.63;4908382;28;122132;-71
2024/01/25 01:33:40;;;;;;;5.15;1.58;;;;;;;20.73;41.81;102704.06;4925543;28;108312;-71
2024/01/25 01:36:05;;;;;;;4.25;1.40;;;;;;;20.73;41.97;102710.25;4912338;28;97497;-70
2024/01/25 01:38:31;;;;;;;5.47;2.03;;;;;;;20.72;42.15;102719.06;4929326;28;97093;-71
2024/01/25 01:40:56;;;;;;;4.78;2.08;;;;;;;20.72;41.87;102716.41;4915598;28;97183;-70
2024/01/25 01:43:23;;;;;;;7.88;1.95;;;;;;;20.72;42.10;102720.84;4926135;28;96824;-70
2024/01/25 01:45:49;;;;;;;5.38;1.17;;;;;;;20.72;42.08;102724.38;4929033;28;98258;-71
2024/01/25 01:48:15;;;;;;;4.38;1.80;;;;;;;20.75;42.11;102727.91;4927839;28;98075;-70
2024/01/25 01:50:41;;;;;;;5.80;1.40;;;;;;;20.73;42.00;102722.63;4926110;28;97682;-71
2024/01/25 01:53:06;;;;;;;5.88;1.98;;;;;;;20.73;42.22;102719.97;4928640;28;97382;-71
2024/01/25 01:55:32;;;;;;;6.82;1.80;;;;;;;20.73;42.01;102719.97;4911668;28;98291;-71
2024/01/25 01:57:58;;;;;;;5.13;1.60;;;;;;;20.73;42.04;102731.44;4924308;28;121209;-70
2024/01/25 02:00:25;;;;;;;6.10;1.65;;;;;;;20.73;42.07;102730.56;4916741;28;98324;-71
2024/01/25 02:02:51;;;;;;;6.15;1.40;;;;;;;20.73;41.92;102742.06;4921530;28;96872;-70
2024/01/25 02:05:17;;;;;;;5.68;1.92;;;;;;;20.72;41.83;102742.94;4922764;28;97547;-70
2024/01/25 02:07:42;;;;;;;4.45;1.25;;;;;;;20.73;41.79;102746.50;4927248;28;97119;-70
2024/01/25 02:10:08;;;;;;;5.20;1.30;;;;;;;20.72;41.81;102745.59;4927233;28;97105;-71
2024/01/25 02:12:34;;;;;;;5.32;1.60;;;;;;;20.73;42.04;102743.84;4928754;28;96972;-71
2024/01/25 02:14:59;;;;;;;4.65;1.70;;;;;;;20.72;42.20;102753.53;4929293;28;98248;-71
2024/01/25 02:17:25;;;;;;;4.60;1.13;;;;;;;20.73;42.05;102759.75;4927570;28;125283;-71
2024/01/25 02:19:50;;;;;;;5.57;1.45;;;;;;;20.72;41.85;102758.84;4928992;28;96737;-71
2024/01/25 02:22:18;;;;;;;5.55;2.03;;;;;;;20.72;42.02;102766.78;4927706;28;115426;-71
2024/01/25 02:24:44;;;;;;;4.35;1.48;;;;;;;20.72;42.24;102769.44;4924217;28;97896;-71
2024/01/25 02:27:09;;;;;;;4.00;1.45;;;;;;;20.71;41.85;102765.03;4907559;28;99411;-71
2024/01/25 02:29:35;;;;;;;5.20;1.90;;;;;;;20.72;42.09;102764.16;4929318;28;97335;-71
2024/01/25 02:32:00;;;;;;;6.15;1.70;;;;;;;20.72;41.92;102763.28;4910737;28;97784;-71
2024/01/25 02:34:25;;;;;;;4.32;2.00;;;;;;;20.71;42.28;102751.78;4928245;28;105511;-71
2024/01/25 02:36:51;;;;;;;5.72;1.80;;;;;;;20.71;41.98;102751.78;4910100;28;112813;-70
2024/01/25 02:39:16;;;;;;;5.05;1.30;;;;;;;20.71;41.78;102756.19;4926944;28;120510;-71
2024/01/25 02:41:41;;;;;;;6.18;1.65;;;;;;;20.72;41.91;102744.72;4928152;28;96864;-71
2024/01/25 02:44:08;;;;;;;5.43;1.42;;;;;;;20.71;42.01;102749.13;4925877;28;126877;-71
2024/01/25 02:46:33;;;;;;;5.38;2.30;;;;;;;20.72;41.80;102748.22;4926756;28;118510;-70
2024/01/25 02:48:59;;;;;;;4.85;1.38;;;;;;;20.72;42.16;102736.75;4926890;28;96763;-71
2024/01/25 02:51:24;;;;;;;5.75;1.33;;;;;;;20.72;41.73;102744.72;4925402;28;97079;-70
2024/01/25 02:53:49;;;;;;;5.22;2.00;;;;;;;20.71;41.88;102738.53;4911023;28;103276;-71
2024/01/25 02:56:15;;;;;;;4.30;1.63;;;;;;;20.72;42.19;102742.94;4925011;28;126585;-70
2024/01/25 02:58:40;;;;;;;5.10;1.30;;;;;;;20.72;41.93;102750.00;4924109;28;99455;-70
2024/01/25 03:01:06;;;;;;;5.97;2.20;;;;;;;20.72;42.01;102747.34;4926764;28;96803;-70
2024/01/25 03:03:31;;;;;;;5.00;1.92;;;;;;;20.72;41.89;102756.19;4928192;28;109627;-71
2024/01/25 03:05:56;;;;;;;5.00;1.90;;;;;;;20.71;42.01;102751.78;4926781;28;97238;-71
2024/01/25 03:08:22;;;;;;;7.25;1.90;;;;;;;20.72;41.92;102761.50;4927890;28;103506;-70
2024/01/25 03:10:50;;;;;;;5.97;1.80;;;;;;;20.71;41.95;102762.41;4928349;28;96708;-70
2024/01/25 03:13:18;;;;;;;5.45;1.33;;;;;;;20.71;41.79;102767.69;4928549;28;97203;-71
2024/01/25 03:15:44;;;;;;;4.93;1.42;;;;;;;20.72;41.81;102773.88;4928170;28;96658;-71
2024/01/25 03:18:10;;;;;;;6.47;2.08;;;;;;;20.72;42.10;102776.53;4927213;28;117785;-71
2024/01/25 03:20:36;;;;;;;5.70;1.15;;;;;;;20.71;41.89;102772.09;4909953;28;97092;-71
2024/01/25 03:23:01;;;;;;;5.65;1.35;;;;;;;20.72;41.79;102766.78;4927595;28;97430;-70
2024/01/25 03:25:26;;;;;;;7.53;1.48;;;;;;;20.70;41.70;102759.75;4927917;28;97637;-70
2024/01/25 03:27:52;;;;;;;3.83;1.08;;;;;;;20.71;41.75;102769.44;4927204;28;114160;-71
2024/01/25 03:30:17;;;;;;;4.63;1.90;;;;;;;20.72;42.06;102781.81;4927040;28;97036;-70
2024/01/25 03:32:42;;;;;;;4.53;1.83;;;;;;;20.71;41.83;102775.66;4925377;28;127377;-70
2024/01/25 03:35:08;;;;;;;7.20;1.70;;;;;;;20.72;41.92;102779.19;4927799;28;122599;-71
2024/01/25 03:37:33;;;;;;;5.07;1.67;;;;;;;20.71;41.91;102767.69;4927806;28;96909;-71
2024/01/25 03:39:59;;;;;;;5.38;1.73;;;;;;;20.72;41.61;102776.53;4925955;28;96814;-70
2024/01/25 03:42:24;;;;;;;4.55;1.48;;;;;;;20.71;41.91;102775.66;4925044;28;125494;-71
2024/01/25 03:44:50;;;;;;;6.60;1.95;;;;;;;20.71;41.79;102773.00;4926236;28;97961;-71
2024/01/25 03:47:15;;;;;;;3.83;1.63;;;;;;;20.71;41.79;102780.94;4924690;28;97469;-71
2024/01/25 03:49:40;;;;;;;4.85;1.63;;;;;;;20.71;41.94;102774.75;4929157;28;99606;-71
2024/01/25 03:52:06;;;;;;;4.38;1.42;;;;;;;20.71;41.80;102775.66;4929195;28;96916;-70
2024/01/25 03:54:31;;;;;;;3.75;1.23;;;;;;;20.71;41.66;102782.69;4932713;28;97402;-70
2024/01/25 03:56:57;;;;;;;4.43;1.30;;;;;;;20.71;41.72;102775.66;4931901;28;115611;-71
2024/01/25 03:59:22;;;;;;;5.13;1.33;;;;;;;20.71;41.83;102778.31;4934111;28;96842;-71
2024/01/25 04:01:48;;;;;;;4.68;1.52;;;;;;;20.71;41.78;102772.09;4932884;28;126884;-71
2024/01/25 04:04:17;;;;;;;3.28;1.60;;;;;;;20.71;42.14;102766.78;4927448;28;97525;-70
2024/01/25 04:06:43;;;;;;;6.47;1.45;;;;;;;20.70;41.72;102781.81;4919036;28;96700;-71
2024/01/25 04:09:09;;;;;;;4.80;1.80;;;;;;;20.71;41.69;102790.66;4931367;28;97018;-71
2024/01/25 04:11:36;;;;;;;6.95;2.13;;;;;;;20.71;41.94;102791.56;4933266;28;98263;-71
2024/01/25 04:14:01;;;;;;;6.15;1.88;;;;;;;20.72;41.63;102781.81;4933564;28;98072;-71
2024/01/25 04:16:27;;;;;;;5.88;1.92;;;;;;;20.70;41.93;102781.81;4932940;28;122150;-71
2024/01/25 04:18:52;;;;;;;4.57;1.30;;;;;;;20.71;41.81;102769.44;4932137;28;96840;-71
2024/01/25 04:21:18;;;;;;;4.18;1.75;;;;;;;20.71;41.71;102770.34;4932946;28;126256;-71
2024/01/25 04:23:43;;;;;;;5.45;1.52;;;;;;;20.71;41.79;102772.09;4915323;28;101004;-70
2024/01/25 04:26:08;;;;;;;4.47;2.13;;;;;;;20.71;41.86;102769.44;4931012;28;122092;-71
2024/01/25 04:28:34;;;;;;;6.57;1.70;;;;;;;20.70;41.76;102765.91;4933615;28;96628;-71
2024/01/25 04:30:59;;;;;;;5.35;1.42;;;;;;;20.70;41.61;102768.56;4933129;28;96770;-70
2024/01/25 04:33:24;;;;;;;5.30;2.08;;;;;;;20.71;41.85;102774.75;4932938;28;125470;-71
2024/01/25 04:35:50;;;;;;;4.65;1.30;;;;;;;20.70;41.71;102780.94;4912909;28;121796;-70
2024/01/25 04:38:15;;;;;;;6.38;1.83;;;;;;;20.69;41.95;102780.03;4930989;28;97585;-70
2024/01/25 04:40:40;;;;;;;6.03;1.80;;;;;;;20.70;41.67;102775.66;4928617;28;121128;-71
2024/01/25 04:43:06;;;;;;;4.82;2.05;;;;;;;20.69;41.90;102777.38;4930730;28;126532;-71
2024/01/25 04:45:31;;;;;;;5.68;1.80;;;;;;;20.70;41.88;102779.16;4934161;28;97116;-70
2024/01/25 04:47:56;;;;;;;5.35;1.63;;;;;;;20.70;41.62;102773.00;4930596;28;121551;-71
2024/01/25 04:50:22;;;;;;;5.95;1.75;;;;;;;20.70;41.66;102779.16;4930275;28;122768;-70
2024/01/25 04:52:47;;;;;;;5.05;1.58;;;;;;;20.70;41.77;102781.81;4930967;28;125430;-71
2024/01/25 04:55:12;;;;;;;4.75;2.00;;;;;;;20.70;41.46;102771.22;4914268;28;122158;-71
2024/01/25 04:57:38;;;;;;;6.13;1.60;;;;;;;20.70;41.69;102773.00;4915398;28;96906;-70
2024/01/25 05:00:04;;;;;;;3.05;1.23;;;;;;;20.70;41.62;102768.56;4910354;28;97412;-71
2024/01/25 05:02:29;;;;;;;4.45;1.13;;;;;;;20.69;41.57;102764.13;4930186;28;97278;-71
2024/01/25 05:04:55;;;;;;;5.22;1.52;;;;;;;20.70;41.81;102762.38;4930346;28;96821;-71
2024/01/25 05:07:20;;;;;;;5.68;2.00;;;;;;;20.69;41.81;102758.81;4929412;28;120518;-70
2024/01/25 05:09:45;;;;;;;4.63;1.40;;;;;;;20.70;41.95;102765.03;4928771;28;125547;-70
2024/01/25 05:12:11;;;;;;;6.10;1.85;;;;;;;20.69;41.70;102769.44;4928842;28;125363;-70
2024/01/25 05:14:36;;;;;;;5.13;1.42;;;;;;;20.70;41.82;102773.00;4922193;28;96989;-70
2024/01/25 05:17:01;;;;;;;5.28;2.00;;;;;;;20.70;41.66;102771.22;4928122;28;120450;-70
2024/01/25 05:19:27;;;;;;;5.85;2.08;;;;;;;20.69;41.61;102771.22;4929044;28;115528;-71
2024/01/25 05:21:52;;;;;;;5.30;2.10;;;;;;;20.70;41.70;102773.00;4929182;28;125397;-71
2024/01/25 05:24:17;;;;;;;4.70;1.73;;;;;;;20.69;41.61;102780.03;4928793;28;96876;-70
2024/01/25 05:26:43;;;;;;;4.38;1.42;;;;;;;20.69;41.66;102765.91;4927012;28;96999;-70
2024/01/25 05:29:08;;;;;;;3.65;1.15;;;;;;;20.69;41.44;102769.44;4927602;28;127020;-71
2024/01/25 05:31:33;;;;;;;5.25;1.23;;;;;;;20.70;41.75;102767.69;4915213;28;97400;-71
2024/01/25 05:33:59;;;;;;;6.72;1.42;;;;;;;20.70;41.44;102770.34;4923160;28;96841;-71
2024/01/25 05:36:24;;;;;;;6.68;1.90;;;;;;;20.69;41.71;102768.56;4929358;28;115576;-70
2024/01/25 05:38:50;;;;;;;4.90;2.20;;;;;;;20.68;41.89;102775.63;4928012;28;97987;-71
2024/01/25 05:41:15;;;;;;;5.65;1.65;;;;;;;20.69;41.63;102785.34;4904519;28;98757;-71
2024/01/25 05:43:40;;;;;;;6.50;1.67;;;;;;;20.68;41.70;102786.25;4929779;28;96579;-71
2024/01/25 05:46:06;;;;;;;4.93;1.85;;;;;;;20.69;41.73;102790.66;4914339;28;120564;-70
2024/01/25 05:48:31;;;;;;;3.80;1.40;;;;;;;20.69;41.74;102789.78;4919150;28;96726;-70
2024/01/25 05:50:56;;;;;;;4.85;1.70;;;;;;;20.69;41.77;102789.78;4927487;28;126742;-70
2024/01/25 05:53:22;;;;;;;4.38;1.60;;;;;;;20.68;41.50;102791.56;4927523;28;97563;-71
2024/01/25 05:55:48;;;;;;;5.30;1.33;;;;;;;20.69;41.37;102789.78;4919172;28;96767;-71
2024/01/25 05:58:13;;;;;;;4.53;1.75;;;;;;;20.68;41.61;102798.63;4911447;28;97166;-70
2024/01/25 06:00:39;;;;;;;5.55;1.55;;;;;;;20.68;41.43;102799.50;4926850;28;101312;-70
2024/01/25 06:03:04;;;;;;;5.97;1.52;;;;;;;20.68;41.67;102807.47;4908127;28;97071;-70
2024/01/25 06:05:30;;;;;;;4.47;1.15;;;;;;;20.69;41.63;102805.69;4929340;28;96860;-70
2024/01/25 06:07:55;;;;;;;4.55;1.30;;;;;;;20.68;41.46;102809.22;4925064;28;96947;-70
2024/01/25 06:10:21;;;;;;;3.72;1.15;;;;;;;20.69;41.36;102816.28;4910807;28;97385;-71
2024/01/25 06:12:46;;;;;;;5.82;1.48;;;;;;;20.67;41.79;102810.97;4928652;28;96990;-70
2024/01/25 06:15:12;;;;;;;5.53;1.40;;;;;;;20.68;41.42;102810.09;4922775;28;115827;-71
2024/01/25 06:17:37;;;;;;;5.43;1.60;;;;;;;20.68;41.82;102806.59;4925526;28;97975;-70
2024/01/25 06:20:03;;;;;;;4.40;2.08;;;;;;;20.68;41.87;102810.09;4908693;28;96778;-71
2024/01/25 06:22:28;;;;;;;7.25;2.05;;;;;;;20.68;41.55;102803.94;4922262;28;96695;-71
2024/01/25 06:24:53;;;;;;;5.88;1.48;;;;;;;20.68;41.49;102806.59;4909895;28;96835;-71
2024/01/25 06:27:19;;;;;;;5.20;1.42;;;;;;;20.67;41.67;102810.97;4928090;28;106171;-71
2024/01/25 06:29:44;;;;;;;4.65;1.65;;;;;;;20.67;41.59;102812.75;4928195;28;101471;-71
2024/01/25 06:32:10;;;;;;;5.88;2.17;;;;;;;20.68;41.57;102814.53;4908700;28;97550;-70
2024/01/25 06:34:35;;;;;;;2.65;1.23;;;;;;;20.67;41.47;102820.72;4924550;28;97706;-70
2024/01/25 06:37:00;;;;;;;5.65;1.38;;;;;;;20.66;41.57;102817.19;4909982;28;98369;-71
2024/01/25 06:39:26;;;;;;;3.80;1.40;;;;;;;20.67;41.45;102818.06;4927018;28;117687;-71
2024/01/25 06:41:51;;;;;;;4.68;1.33;;;;;;;20.67;41.57;102823.34;4920244;28;97197;-69
2024/01/25 06:44:17;;;;;;;5.28;1.45;;;;;;;20.66;41.51;102822.50;4910979;28;104014;-71
2024/01/25 06:46:42;;;;;;;5.07;1.75;;;;;;;20.68;41.30;102827.78;4917404;28;97961;-70
2024/01/25 06:49:08;;;;;;;5.70;1.27;;;;;;;20.67;41.23;102821.59;4928138;28;97257;-70
2024/01/25 06:51:33;;;;;;;6.47;1.70;;;;;;;20.66;41.71;102822.50;4910234;28;121898;-71
2024/01/25 06:53:59;;;;;;;4.93;2.13;;;;;;;20.66;41.41;102819.84;4923058;28;96845;-70
2024/01/25 06:56:24;;;;;;;4.07;1.23;;;;;;;20.67;41.29;102823.34;4917954;28;97904;-70
2024/01/25 06:58:49;;;;;;;5.15;2.13;;;;;;;20.68;41.56;102827.78;4916115;28;97212;-71
2024/01/25 07:01:22;;;;;;;5.20;1.88;;;;;;;20.67;41.32;102826.88;4925492;28;96870;-70
2024/01/25 07:03:50;;;;;;;6.32;1.30;;;;;;;20.67;41.62;102826.00;4920748;28;97204;-70
2024/01/25 07:06:17;;;;;;;5.03;1.57;;;;;;;20.67;41.68;102828.66;4910027;28;98753;-71
2024/01/25 07:08:42;;;;;;;5.00;1.65;;;;;;;20.67;41.71;102823.34;4915777;28;97493;-71
2024/01/25 07:11:07;;;;;;;6.32;2.00;;;;;;;20.67;41.35;102828.66;4902027;28;122977;-71
2024/01/25 07:13:33;;;;;;;4.28;1.60;;;;;;;20.66;41.17;102833.09;4912700;28;97003;-71
2024/01/25 07:15:58;;;;;;;7.13;2.05;;;;;;;20.66;41.63;102830.44;4914260;28;115862;-71
2024/01/25 07:18:24;;;;;;;6.80;1.52;;;;;;;20.66;41.68;102822.50;4923495;28;97266;-71
2024/01/25 07:20:49;;;;;;;5.85;1.45;;;;;;;20.66;41.49;102814.53;4908118;28;97007;-71
2024/01/25 07:23:15;;;;;;;6.13;1.33;;;;;;;20.66;41.36;102814.53;4917881;28;97255;-71
2024/01/25 07:25:40;;;;;;;6.03;1.60;;;;;;;20.67;41.32;102812.75;4918462;28;97364;-71
2024/01/25 07:28:06;;;;;;;6.00;1.85;;;;;;;20.67;41.27;102818.06;4916961;28;97557;-71
2024/01/25 07:30:31;;;;;;;6.10;1.60;;;;;;;20.67;41.58;102818.06;4919323;28;96750;-71
2024/01/25 07:32:56;;;;;;;7.10;1.73;;;;;;;20.66;41.38;102827.78;4924192;28;121944;-70
2024/01/25 07:35:23;;;;;;;7.70;1.98;;;;;;;20.67;41.83;102820.72;4921740;28;102499;-71
2024/01/25 07:37:48;;;;;;;4.97;1.15;;;;;;;20.66;41.43;102814.53;4918713;28;96901;-71
2024/01/25 07:40:14;;;;;;;5.57;1.83;;;;;;;20.67;41.49;102826.00;4919973;28;112590;-71
2024/01/25 07:42:39;;;;;;;5.05;1.30;;;;;;;20.67;41.71;102839.28;4919055;28;121702;-71
2024/01/25 07:45:05;;;;;;;6.20;1.90;;;;;;;20.66;41.44;102842.78;4920565;28;97280;-71
2024/01/25 07:47:30;;;;;;;5.85;1.90;;;;;;;20.66;41.32;102851.66;4908079;28;98840;-71
2024/01/25 07:49:55;;;;;;;6.40;1.90;;;;;;;20.67;41.55;102855.19;4916866;28;121907;-71
2024/01/25 07:52:21;;;;;;;5.03;1.42;;;;;;;20.67;41.70;102849.88;4919799;28;97313;-72
2024/01/25 07:54:46;;;;;;;6.30;1.73;;;;;;;20.66;41.42;102849.00;4919072;28;127544;-71
2024/01/25 07:57:11;;;;;;;6.20;1.92;;;;;;;20.66;41.54;102849.00;4908727;28;100368;-71
2024/01/25 07:59:37;;;;;;;4.75;1.80;;;;;;;20.67;41.47;102852.53;4919241;28;96815;-71
2024/01/25 08:02:02;;;;;;;7.35;1.73;;;;;;;20.66;41.45;102854.31;4924669;28;96899;-71
2024/01/25 08:04:28;;;;;;;5.85;1.80;;;;;;;20.66;41.58;102854.31;4906333;28;98167;-71
2024/01/25 08:06:53;;;;;;;4.18;1.90;;;;;;;20.67;41.51;102865.78;4927058;28;125533;-71
2024/01/25 08:09:19;;;;;;;5.35;1.58;;;;;;;20.67;41.65;102855.19;4929110;28;97052;-71
2024/01/25 08:11:44;;;;;;;6.10;1.85;;;;;;;20.67;41.58;102855.19;4905668;28;113387;-71
2024/01/25 08:14:11;;;;;;;5.05;1.90;;;;;;;20.66;41.29;102846.34;4914734;28;122784;-71
2024/01/25 08:16:36;;;;;;;6.78;1.70;;;;;;;20.67;41.20;102844.56;4919087;28;96826;-71
2024/01/25 08:19:02;;;;;;;5.03;1.23;;;;;;;20.67;41.44;102847.22;4921730;28;97110;-71
2024/01/25 08:21:28;;;;;;;4.93;1.52;;;;;;;20.66;41.52;102851.66;4919453;28;96832;-71
2024/01/25 08:23:53;;;;;;;5.32;1.98;;;;;;;20.66;41.69;102856.03;4921098;28;117340;-71
2024/01/25 08:26:19;;;;;;;6.60;2.30;;;;;;;20.67;41.64;102858.72;4918990;28;97161;-71
2024/01/25 08:28:47;;;;;;;6.90;1.95;;;;;;;20.66;41.45;102851.66;4912290;28;97345;-71
2024/01/25 08:31:12;;;;;;;5.32;1.75;;;;;;;20.67;41.56;102856.06;4914827;28;97399;-71
2024/01/25 08:33:41;;;;;;;5.35;1.92;;;;;;;20.68;41.37;102851.66;4921646;28;97600;-71
2024/01/25 08:36:07;;;;;;;4.75;1.23;;;;;;;20.66;41.41;102849.00;4921975;28;97473;-71
2024/01/25 08:38:32;;;;;;;6.38;1.45;;;;;;;20.68;41.36;102849.00;4923328;28;96839;-71
2024/01/25 08:40:58;;;;;;;7.28;2.03;;;;;;;20.67;41.32;102861.34;4928009;28;96788;-71
2024/01/25 08:43:23;;;;;;;5.78;2.05;;;;;;;20.68;41.28;102872.88;4905886;28;97030;-71
2024/01/25 08:45:49;;;;;;;5.68;1.92;;;;;;;20.68;41.22;102875.53;4920354;28;125223;-71
2024/01/25 08:48:14;;;;;;;5.05;2.10;;;;;;;20.67;41.68;102871.97;4923728;28;96730;-71
2024/01/25 08:50:39;;;;;;;6.30;1.65;;;;;;;20.67;41.65;102864.00;4920908;28;96793;-71
2024/01/25 08:53:05;;;;;;;7.45;2.08;;;;;;;20.68;41.74;102856.97;4923732;28;127593;-71
2024/01/25 08:55:31;;;;;;;5.40;1.48;;;;;;;20.67;41.47;102853.41;4921777;28;96867;-71
2024/01/25 08:57:56;;;;;;;6.60;1.58;;;;;;;20.68;41.48;102841.94;4912747;28;97372;-71
2024/01/25 09:00:22;;;;;;;5.95;1.95;;;;;;;20.68;41.20;102857.84;4922804;28;121697;-72
2024/01/25 09:02:47;;;;;;;5.28;1.90;;;;;;;20.67;41.59;102855.19;4931101;28;96835;-71
2024/01/25 09:05:13;;;;;;;5.38;1.90;;;;;;;20.68;41.22;102870.22;4929927;28;125045;-71
2024/01/25 09:07:38;;;;;;;5.93;1.83;;;;;;;20.69;41.35;102879.94;4931358;28;96786;-72
2024/01/25 09:10:05;;;;;;;6.00;1.98;;;;;;;20.69;41.60;102888.75;4917043;28;102054;-71
2024/01/25 09:12:30;;;;;;;4.82;1.75;;;;;;;20.69;41.41;102888.75;4925463;28;96762;-71
2024/01/25 09:14:56;;;;;;;4.47;1.73;;;;;;;20.70;41.37;102871.09;4930215;28;126648;-71
2024/01/25 09:17:21;;;;;;;6.90;1.38;;;;;;;20.69;41.22;102880.81;4930050;28;96863;-71
2024/01/25 09:19:51;;;;;;;4.40;1.45;;;;;;;20.69;41.55;102883.44;4906632;28;97202;-71
2024/01/25 09:22:19;;;;;;;6.25;1.63;;;;;;;20.69;41.28;102883.44;4912899;28;97356;-71
2024/01/25 09:24:44;;;;;;;3.80;1.15;;;;;;;20.69;41.60;102887.88;4911266;28;99025;-71
2024/01/25 09:27:10;;;;;;;5.60;1.95;;;;;;;20.68;41.56;102887.00;4911618;28;96889;-71
2024/01/25 09:29:35;;;;;;;6.32;1.50;;;;;;;20.70;41.41;102879.94;4912052;28;96764;-71
2024/01/25 09:32:01;;;;;;;6.22;2.03;;;;;;;20.69;41.41;102886.09;4911926;28;97476;-71
2024/01/25 09:34:26;;;;;;;6.20;2.15;;;;;;;20.70;41.33;102876.41;4918262;28;122500;-71
2024/01/25 09:36:52;;;;;;;4.97;1.58;;;;;;;20.70;41.65;102871.97;4930287;28;96761;-71
2024/01/25 09:39:17;;;;;;;4.28;1.35;;;;;;;20.70;41.61;102876.41;4930121;28;96794;-71
2024/01/25 09:41:43;;;;;;;4.75;1.58;;;;;;;20.70;41.49;102882.59;4928093;28;99655;-71
2024/01/25 09:44:09;;;;;;;4.70;1.73;;;;;;;20.71;41.33;102878.16;4913495;28;116513;-71
2024/01/25 09:46:35;;;;;;;5.03;2.10;;;;;;;20.70;41.38;102877.28;4926486;28;98889;-71
2024/01/25 09:49:03;;;;;;;4.65;1.70;;;;;;;20.72;41.40;102869.34;4930392;28;96831;-71
2024/01/25 09:51:37;;;;;;;6.13;1.63;;;;;;;20.71;41.16;102857.84;4925487;28;96802;-71
2024/01/25 09:54:04;;;;;;;4.65;1.77;;;;;;;20.71;41.47;102864.91;4913399;28;96855;-71
2024/01/25 09:56:32;;;;;;;5.05;1.90;;;;;;;20.71;41.49;102871.13;4928987;28;97121;-71
2024/01/25 09:58:58;;;;;;;5.68;1.92;;;;;;;20.72;41.23;102869.34;4912781;28;96758;-71
2024/01/25 10:01:24;;;;;;;3.92;1.88;;;;;;;20.72;41.38;102879.94;4930354;28;97228;-71
2024/01/25 10:03:49;;;;;;;6.90;1.95;;;;;;;20.72;41.55;102862.25;4925507;28;96767;-71
2024/01/25 10:06:16;;;;;;;4.65;1.50;;;;;;;20.73;41.25;102868.47;4918666;28;96800;-71
2024/01/25 10:08:42;;;;;;;6.35;1.52;;;;;;;20.72;41.58;102858.72;4911583;28;96996;-71
2024/01/25 10:11:14;;;;;;;4.47;1.23;;;;;;;20.72;41.42;102862.25;4911850;28;96805;-71
2024/01/25 10:13:53;;;;;;;5.85;1.38;;;;;;;20.72;41.25;102858.72;4924640;28;96829;-71
2024/01/25 10:16:19;;;;;;;5.05;1.23;;;;;;;20.72;41.20;102853.44;4927565;28;96799;-71
2024/01/25 10:18:48;;;;;;;5.90;2.35;;;;;;;20.73;41.53;102847.25;4928520;28;97114;-71
2024/01/25 10:21:14;;;;;;;6.15;1.98;;;;;;;20.72;41.38;102842.81;4924216;28;96939;-71
2024/01/25 10:23:41;;;;;;;7.13;1.92;;;;;;;20.73;41.11;102834.00;4930401;28;97119;-71
2024/01/25 10:26:09;;;;;;;4.72;1.65;;;;;;;20.73;41.28;102826.03;4922525;28;97193;-71
2024/01/25 10:28:34;;;;;;;7.63;1.48;;;;;;;20.72;41.56;102843.69;4912318;28;96995;-71
2024/01/25 10:31:02;;;;;;;5.97;2.15;;;;;;;20.74;41.41;102846.34;4911069;28;127358;-71
2024/01/25 10:33:27;;;;;;;3.83;1.83;;;;;;;20.74;41.03;102851.66;4912681;28;97349;-71
2024/01/25 10:36:03;;;;;;;6.38;1.80;;;;;;;20.76;41.34;102849.00;4910742;28;97584;-71
2024/01/25 10:38:35;;;;;;;5.97;1.83;;;;;;;20.75;41.27;102858.75;4911804;28;96740;-72
2024/01/25 10:41:02;;;;;;;7.70;1.70;;;;;;;20.75;41.16;102852.53;4910782;28;97564;-71
2024/01/25 10:43:30;;;;;;;6.22;1.65;;;;;;;20.75;41.24;102860.50;4894036;28;98527;-71
2024/01/25 10:45:58;;;;;;;3.55;1.38;;;;;;;20.76;41.47;102859.63;4911154;28;96946;-71
2024/01/25 10:48:27;;;;;;;4.97;1.30;;;;;;;20.76;41.11;102859.63;4911020;28;96826;-72
2024/01/25 10:50:54;;;;;;;5.05;1.33;;;;;;;20.75;41.08;102853.44;4909603;28;99541;-71
2024/01/25 10:53:21;;;;;;;4.85;2.20;;;;;;;20.76;41.42;102841.06;4916494;28;96968;-71
2024/01/25 10:55:47;;;;;;;5.78;1.52;;;;;;;20.76;41.21;102843.72;4922749;28;96684;-71
2024/01/25 10:58:14;;;;;;;5.38;1.30;;;;;;;20.76;41.24;102839.28;4917510;28;96866;-71
2024/01/25 11:00:39;;;;;;;4.30;1.60;;;;;;;20.77;41.43;102826.94;4925402;28;96785;-71
2024/01/25 11:03:06;;;;;;;6.30;1.77;;;;;;;20.76;41.39;102823.38;4924703;28;97341;-71
2024/01/25 11:05:32;;;;;;;4.95;2.10;;;;;;;20.76;41.32;102827.81;4918595;28;109685;-71
2024/01/25 11:07:58;;;;;;;7.63;1.45;;;;;;;20.76;41.37;102823.38;4921490;28;96807;-72
2024/01/25 11:10:27;;;;;;;5.82;1.75;;;;;;;20.77;41.43;102821.63;4909170;28;99393;-71
2024/01/25 11:12:57;;;;;;;4.65;1.67;;;;;;;20.77;41.05;102808.38;4910835;28;97630;-71
2024/01/25 11:15:30;;;;;;;6.85;1.65;;;;;;;20.78;41.08;102807.47;4917904;28;96665;-71